createdAt,value
2022-08-12T00:00:35.784Z,20.80
2022-08-12T00:06:10.871Z,20.90
2022-08-12T00:08:57.353Z,20.80
2022-08-12T00:11:44.276Z,20.60
2022-08-12T00:14:34.718Z,20.50
2022-08-12T00:17:22.835Z,20.50
2022-08-12T00:20:09.685Z,20.30
2022-08-12T00:22:59.009Z,20.40
2022-08-12T00:26:22.975Z,20.40
2022-08-12T00:29:04.702Z,20.30
2022-08-12T00:31:50.149Z,20.40
2022-08-12T00:34:36.209Z,20.30
2022-08-12T00:37:22.291Z,20.30
2022-08-12T00:40:11.993Z,20.30
2022-08-12T00:42:42.721Z,20.10
2022-08-12T00:45:10.695Z,20.10
2022-08-12T00:47:40.449Z,20.00
2022-08-12T00:50:09.798Z,19.90
2022-08-12T00:52:36.594Z,20.00
2022-08-12T00:55:05.413Z,20.00
2022-08-12T00:57:36.866Z,19.90
2022-08-12T01:00:17.247Z,19.90
2022-08-12T01:02:52.124Z,19.90
2022-08-12T01:05:39.691Z,19.90
2022-08-12T01:08:26.214Z,19.90
2022-08-12T01:11:14.280Z,19.90
2022-08-12T01:13:49.394Z,19.90
2022-08-12T01:16:22.577Z,19.70
2022-08-12T01:18:54.978Z,19.60
2022-08-12T01:21:27.827Z,19.60
2022-08-12T01:24:30.391Z,19.60
2022-08-12T01:26:59.590Z,19.60
2022-08-12T01:29:32.832Z,19.60
2022-08-12T01:32:05.137Z,19.50
2022-08-12T01:34:39.191Z,19.40
2022-08-12T01:37:08.347Z,19.30
2022-08-12T01:40:36.991Z,19.30
2022-08-12T01:42:34.038Z,19.30
2022-08-12T01:45:02.496Z,19.30
2022-08-12T01:47:59.453Z,19.40
2022-08-12T01:50:54.856Z,19.30
2022-08-12T01:56:21.956Z,19.10
2022-08-12T01:59:14.895Z,19.10
2022-08-12T02:01:46.227Z,19.10
2022-08-12T02:04:46.753Z,18.90
2022-08-12T02:07:41.392Z,18.90
2022-08-12T02:10:50.802Z,18.90
2022-08-12T02:13:48.886Z,18.90
2022-08-12T02:16:38.014Z,18.90
2022-08-12T02:19:40.550Z,18.80
2022-08-12T02:22:28.260Z,18.70
2022-08-12T02:25:18.052Z,18.80
2022-08-12T02:27:53.894Z,18.80
2022-08-12T02:30:24.949Z,18.70
2022-08-12T02:32:54.732Z,18.70
2022-08-12T02:35:35.542Z,18.60
2022-08-12T02:38:05.863Z,18.50
2022-08-12T02:40:37.950Z,18.50
2022-08-12T02:43:12.182Z,18.40
2022-08-12T02:46:00.294Z,18.50
2022-08-12T02:48:54.570Z,18.50
2022-08-12T02:51:34.964Z,18.50
2022-08-12T02:54:06.204Z,18.40
2022-08-12T02:56:50.534Z,18.40
2022-08-12T02:59:26.389Z,18.40
2022-08-12T03:01:58.069Z,18.40
2022-08-12T03:04:26.590Z,18.30
2022-08-12T03:06:58.252Z,18.40
2022-08-12T03:09:30.709Z,18.40
2022-08-12T03:12:07.634Z,18.30
2022-08-12T03:14:39.026Z,18.30
2022-08-12T03:17:30.491Z,18.30
2022-08-12T03:20:08.841Z,18.20
2022-08-12T03:22:41.692Z,18.10
2022-08-12T03:25:18.423Z,18.00
2022-08-12T03:27:49.872Z,17.90
2022-08-12T03:30:19.090Z,17.90
2022-08-12T03:32:50.799Z,17.90
2022-08-12T03:35:41.119Z,17.80
2022-08-12T03:38:12.422Z,17.90
2022-08-12T03:41:22.410Z,17.80
2022-08-12T03:44:16.958Z,17.80
2022-08-12T03:47:07.900Z,17.80
2022-08-12T03:49:54.451Z,17.70
2022-08-12T03:52:40.011Z,17.70
2022-08-12T03:55:25.998Z,17.60
2022-08-12T03:58:13.942Z,17.60
2022-08-12T04:00:40.854Z,17.60
2022-08-12T04:03:31.183Z,17.50
2022-08-12T04:05:57.943Z,17.40
2022-08-12T04:08:26.584Z,17.40
2022-08-12T04:11:13.433Z,17.50
2022-08-12T04:13:41.047Z,17.60
2022-08-12T04:16:14.441Z,17.50
2022-08-12T04:18:42.369Z,17.40
2022-08-12T04:21:12.231Z,17.50
2022-08-12T04:23:47.672Z,17.40
2022-08-12T04:26:15.395Z,17.40
2022-08-12T04:28:45.914Z,17.40
2022-08-12T04:31:14.171Z,17.30
2022-08-12T04:33:42.347Z,17.30
2022-08-12T04:36:11.828Z,17.40
2022-08-12T04:38:39.074Z,17.30
2022-08-12T04:41:06.477Z,17.30
2022-08-12T04:44:01.159Z,17.30
2022-08-12T04:46:23.949Z,17.30
2022-08-12T04:48:53.638Z,17.20
2022-08-12T04:51:23.109Z,17.30
2022-08-12T04:53:50.860Z,17.40
2022-08-12T04:56:17.946Z,17.30
2022-08-12T04:58:48.357Z,17.40
2022-08-12T05:01:18.434Z,17.50
2022-08-12T05:03:51.787Z,17.60
2022-08-12T05:06:26.668Z,17.60
2022-08-12T05:08:55.842Z,17.70
2022-08-12T05:11:24.747Z,17.70
2022-08-12T05:13:57.802Z,17.80
2022-08-12T05:16:25.973Z,17.90
2022-08-12T05:18:58.691Z,17.90
2022-08-12T05:21:26.460Z,18.00
2022-08-12T05:23:55.643Z,18.00
2022-08-12T05:26:22.767Z,18.10
2022-08-12T05:28:54.076Z,18.10
2022-08-12T05:31:42.518Z,18.20
2022-08-12T05:34:14.575Z,18.30
2022-08-12T05:36:43.977Z,18.70
2022-08-12T05:41:38.128Z,18.80
2022-08-12T05:44:11.625Z,18.80
2022-08-12T05:46:38.441Z,18.90
2022-08-12T05:49:06.347Z,19.00
2022-08-12T05:51:40.158Z,19.00
2022-08-12T05:54:11.450Z,19.20
2022-08-12T05:56:41.493Z,19.30
2022-08-12T05:59:11.067Z,19.40
2022-08-12T06:02:10.973Z,19.40
2022-08-12T06:04:30.063Z,19.50
2022-08-12T06:06:56.771Z,19.60
2022-08-12T06:09:25.600Z,19.70
2022-08-12T06:12:04.541Z,19.70
2022-08-12T06:14:36.691Z,19.70
2022-08-12T06:17:05.093Z,19.60
2022-08-12T06:20:25.729Z,19.60
2022-08-12T06:22:19.160Z,19.70
2022-08-12T06:24:46.546Z,19.70
2022-08-12T06:27:17.601Z,19.80
2022-08-12T06:30:10.033Z,20.00
2022-08-12T06:32:33.325Z,20.10
2022-08-12T06:35:25.702Z,20.30
2022-08-12T06:37:56.741Z,20.40
2022-08-12T06:40:43.883Z,20.50
2022-08-12T06:43:10.652Z,20.50
2022-08-12T06:45:45.652Z,20.50
2022-08-12T06:48:13.329Z,20.50
2022-08-12T06:50:42.555Z,20.60
2022-08-12T06:53:11.355Z,20.70
2022-08-12T06:55:57.981Z,20.90
2022-08-12T06:58:26.605Z,20.80
2022-08-12T07:00:57.844Z,21.00
2022-08-12T07:03:29.204Z,21.10
2022-08-12T07:05:59.781Z,21.30
2022-08-12T07:08:32.691Z,21.40
2022-08-12T07:11:05.443Z,21.60
2022-08-12T07:14:11.242Z,21.70
2022-08-12T07:16:51.610Z,21.90
2022-08-12T07:19:19.084Z,22.00
2022-08-12T07:22:00.192Z,22.10
2022-08-12T07:24:36.871Z,22.20
2022-08-12T07:27:06.166Z,22.30
2022-08-12T07:30:03.787Z,22.50
2022-08-12T07:32:24.630Z,22.70
2022-08-12T07:34:54.564Z,22.80
2022-08-12T07:37:23.639Z,22.90
2022-08-12T07:39:59.691Z,23.10
2022-08-12T07:42:29.352Z,23.20
2022-08-12T07:44:56.384Z,23.30
2022-08-12T07:47:23.875Z,23.50
2022-08-12T07:50:03.704Z,23.60
2022-08-12T07:52:39.707Z,23.60
2022-08-12T07:55:10.443Z,23.70
2022-08-12T07:57:54.130Z,23.70
2022-08-12T08:00:21.433Z,23.90
2022-08-12T08:05:19.480Z,24.40
2022-08-12T08:07:46.810Z,24.30
2022-08-12T08:10:13.870Z,24.40
2022-08-12T08:12:58.196Z,24.40
2022-08-12T08:16:01.102Z,24.50
2022-08-12T08:18:26.678Z,24.70
2022-08-12T08:20:56.961Z,24.80
2022-08-12T08:23:46.373Z,24.90
2022-08-12T08:26:15.577Z,25.00
2022-08-12T08:28:45.389Z,25.10
2022-08-12T08:31:14.222Z,25.20
2022-08-12T08:34:04.832Z,25.30
2022-08-12T08:36:28.995Z,25.50
2022-08-12T08:38:58.234Z,25.50
2022-08-12T08:42:16.662Z,25.60
2022-08-12T08:44:39.584Z,25.80
2022-08-12T08:47:11.671Z,25.90
2022-08-12T08:52:08.631Z,26.10
2022-08-12T08:54:37.506Z,26.20
2022-08-12T08:57:08.449Z,26.30
2022-08-12T08:59:35.829Z,26.50
2022-08-12T09:02:02.763Z,26.60
2022-08-12T09:05:13.645Z,26.80
2022-08-12T09:07:51.821Z,26.90
2022-08-12T09:15:36.205Z,28.20
2022-08-12T09:20:54.062Z,27.60
2022-08-12T09:23:59.614Z,27.60
2022-08-12T09:26:10.325Z,27.70
2022-08-12T09:28:38.006Z,27.60
2022-08-12T09:32:06.887Z,27.70
2022-08-12T09:34:26.030Z,27.70
2022-08-12T09:37:00.451Z,27.70
2022-08-12T09:40:05.679Z,28.00
2022-08-12T09:42:44.077Z,28.00
2022-08-12T09:46:21.185Z,28.20
2022-08-12T09:48:22.072Z,28.30
2022-08-12T09:50:51.910Z,28.20
2022-08-12T09:53:36.117Z,28.30
2022-08-12T09:56:58.314Z,28.30
2022-08-12T09:58:58.113Z,28.20
2022-08-12T10:01:35.042Z,28.10
2022-08-12T10:04:15.516Z,28.30
2022-08-12T10:06:53.886Z,28.30
2022-08-12T10:09:22.954Z,28.50
2022-08-12T10:12:12.015Z,28.60
2022-08-12T10:14:39.936Z,28.50
2022-08-12T10:17:21.580Z,28.40
2022-08-12T10:19:52.085Z,28.50
2022-08-12T10:22:36.731Z,28.50
2022-08-12T10:26:18.494Z,28.50
2022-08-12T10:28:34.640Z,28.50
2022-08-12T10:31:04.827Z,28.80
2022-08-12T10:33:54.059Z,28.90
2022-08-12T10:36:40.246Z,28.90
2022-08-12T10:40:01.978Z,29.00
2022-08-12T10:42:16.857Z,29.20
2022-08-12T10:45:00.837Z,29.40
2022-08-12T10:48:14.977Z,29.00
2022-08-12T10:50:28.504Z,28.90
2022-08-12T10:53:09.480Z,29.00
2022-08-12T10:55:36.456Z,29.20
2022-08-12T10:58:14.318Z,29.30
2022-08-12T11:01:26.201Z,29.60
2022-08-12T11:04:24.519Z,29.90
2022-08-12T11:07:06.192Z,29.70
2022-08-12T11:09:14.075Z,29.30
2022-08-12T11:12:35.771Z,29.10
2022-08-12T11:14:49.558Z,29.10
2022-08-12T11:17:42.743Z,29.30
2022-08-12T11:20:07.484Z,29.40
2022-08-12T11:22:37.562Z,29.60
2022-08-12T11:25:12.812Z,29.60
2022-08-12T11:27:42.456Z,29.50
2022-08-12T11:30:30.523Z,29.50
2022-08-12T11:32:57.608Z,29.60
2022-08-12T11:35:24.564Z,29.40
2022-08-12T11:37:59.167Z,29.30
2022-08-12T11:40:26.528Z,29.40
2022-08-12T11:43:01.864Z,29.40
2022-08-12T11:45:42.697Z,29.40
2022-08-12T11:48:15.200Z,29.60
2022-08-12T11:50:45.788Z,29.60
2022-08-12T11:53:56.948Z,29.50
2022-08-12T11:55:59.384Z,29.30
2022-08-12T11:59:02.907Z,29.40
2022-08-12T12:01:58.986Z,29.30
2022-08-12T12:04:01.946Z,29.10
2022-08-12T12:06:28.813Z,29.10
2022-08-12T12:08:55.540Z,29.30
2022-08-12T12:11:27.371Z,29.50
2022-08-12T12:14:14.115Z,29.50
2022-08-12T12:16:49.984Z,29.50
2022-08-12T12:19:17.767Z,29.40
2022-08-12T12:21:47.788Z,29.40
2022-08-12T12:24:21.449Z,29.50
2022-08-12T12:27:00.494Z,29.60
2022-08-12T12:30:18.482Z,29.60
2022-08-12T12:32:29.056Z,29.70
2022-08-12T12:35:14.151Z,29.70
2022-08-12T12:38:05.622Z,30.10
2022-08-12T12:40:43.771Z,30.00
2022-08-12T12:43:14.045Z,30.10
2022-08-12T12:45:44.285Z,30.20
2022-08-12T12:48:16.064Z,30.20
2022-08-12T12:50:51.262Z,30.30
2022-08-12T12:54:06.136Z,30.50
2022-08-12T12:56:34.135Z,30.70
2022-08-12T12:59:03.674Z,30.90
2022-08-12T13:01:31.851Z,30.90
2022-08-12T13:04:02.482Z,30.80
2022-08-12T13:06:32.472Z,30.70
2022-08-12T13:09:04.259Z,30.90
2022-08-12T13:11:41.519Z,31.00
2022-08-12T13:14:13.071Z,31.20
2022-08-12T13:16:56.396Z,31.10
2022-08-12T13:19:25.460Z,31.00
2022-08-12T13:22:23.861Z,31.00
2022-08-12T13:24:55.617Z,31.10
2022-08-12T13:27:35.411Z,31.20
2022-08-12T13:30:06.738Z,31.40
2022-08-12T13:32:34.260Z,31.50
2022-08-12T13:35:04.200Z,31.50
2022-08-12T13:37:54.840Z,31.30
2022-08-12T13:40:26.683Z,31.40
2022-08-12T13:42:58.167Z,31.60
2022-08-12T13:45:30.864Z,31.40
2022-08-12T13:48:04.864Z,31.20
2022-08-12T13:50:38.966Z,31.20
2022-08-12T13:53:23.855Z,31.50
2022-08-12T13:56:01.303Z,31.60
2022-08-12T13:58:30.694Z,31.80
2022-08-12T14:01:05.770Z,32.10
2022-08-12T14:06:19.663Z,32.80
2022-08-12T14:08:49.928Z,32.80
2022-08-12T14:11:25.348Z,33.00
2022-08-12T14:14:06.042Z,33.10
2022-08-12T14:16:49.296Z,33.10
2022-08-12T14:19:22.590Z,33.30
2022-08-12T14:22:01.427Z,32.70
2022-08-12T14:24:35.432Z,32.30
2022-08-12T14:27:09.230Z,31.90
2022-08-12T14:30:04.846Z,32.10
2022-08-12T14:32:28.862Z,32.10
2022-08-12T14:34:56.654Z,32.30
2022-08-12T14:37:56.406Z,32.60
2022-08-12T14:40:18.314Z,32.80
2022-08-12T14:42:46.978Z,33.00
2022-08-12T14:45:14.349Z,33.20
2022-08-12T14:47:51.284Z,32.80
2022-08-12T14:50:41.198Z,32.60
2022-08-12T14:59:20.336Z,31.90
2022-08-12T15:01:52.440Z,31.70
2022-08-12T15:04:28.617Z,31.90
2022-08-12T15:06:58.270Z,32.10
2022-08-12T15:09:31.402Z,31.90
2022-08-12T15:12:03.558Z,31.80
2022-08-12T15:14:31.955Z,31.90
2022-08-12T15:17:00.600Z,31.80
2022-08-12T15:20:11.933Z,31.90
2022-08-12T15:22:35.800Z,31.90
2022-08-12T15:25:08.959Z,31.80
2022-08-12T15:28:20.611Z,31.80
2022-08-12T15:30:31.819Z,31.90
2022-08-12T15:32:59.201Z,31.80
2022-08-12T15:35:38.154Z,31.50
2022-08-12T15:38:15.894Z,31.50
2022-08-12T15:40:49.695Z,31.60
2022-08-12T15:43:51.658Z,31.70
2022-08-12T15:46:15.511Z,31.50
2022-08-12T15:48:47.754Z,31.40
2022-08-12T15:51:58.889Z,31.40
2022-08-12T15:54:35.300Z,31.50
2022-08-12T15:57:10.874Z,31.20
2022-08-12T16:00:00.329Z,31.00
2022-08-12T16:02:41.077Z,30.90
2022-08-12T16:06:11.809Z,30.90
2022-08-12T16:08:13.268Z,30.70
2022-08-12T16:10:46.942Z,30.60
2022-08-12T16:13:18.095Z,30.60
2022-08-12T16:16:02.659Z,30.60
2022-08-12T16:18:31.593Z,30.50
2022-08-12T16:23:51.694Z,30.40
2022-08-12T16:26:20.289Z,30.30
2022-08-12T16:28:55.995Z,30.30
2022-08-12T16:31:24.005Z,30.30
2022-08-12T16:33:59.789Z,30.30
2022-08-12T16:36:31.599Z,30.30
2022-08-12T16:39:01.510Z,30.20
2022-08-12T16:41:39.554Z,30.20
2022-08-12T16:44:08.348Z,30.20
2022-08-12T16:46:36.202Z,30.10
2022-08-12T16:49:12.897Z,30.10
2022-08-12T16:51:46.579Z,30.10
2022-08-12T16:54:16.435Z,30.10
2022-08-12T16:56:54.751Z,30.10
2022-08-12T16:59:53.458Z,30.00
2022-08-12T17:02:34.097Z,30.00
2022-08-12T17:05:04.124Z,30.00
2022-08-12T17:07:36.749Z,29.90
2022-08-12T17:10:06.778Z,29.70
2022-08-12T17:12:33.945Z,29.60
2022-08-12T17:15:21.277Z,29.60
2022-08-12T17:18:39.256Z,29.60
2022-08-12T17:20:46.667Z,29.50
2022-08-12T17:23:19.346Z,29.50
2022-08-12T17:25:52.350Z,29.50
2022-08-12T17:28:21.275Z,29.50
2022-08-12T17:30:59.526Z,29.40
2022-08-12T17:33:27.656Z,29.30
2022-08-12T17:35:58.548Z,29.30
2022-08-12T17:38:25.385Z,29.30
2022-08-12T17:40:54.414Z,29.20
2022-08-12T17:43:56.159Z,29.10
2022-08-12T17:46:12.752Z,29.20
2022-08-12T17:48:55.247Z,29.20
2022-08-12T17:51:25.112Z,29.10
2022-08-12T17:54:12.464Z,29.00
2022-08-12T17:56:43.645Z,29.00
2022-08-12T17:59:12.390Z,28.90
2022-08-12T18:01:45.570Z,28.90
2022-08-12T18:04:21.283Z,28.80
2022-08-12T18:06:50.406Z,28.80
2022-08-12T18:09:18.322Z,28.80
2022-08-12T18:12:08.471Z,28.70
2022-08-12T18:14:38.249Z,28.70
2022-08-12T18:17:10.043Z,28.70
2022-08-12T18:20:05.082Z,28.60
2022-08-12T18:22:30.548Z,28.50
2022-08-12T18:25:05.378Z,28.50
2022-08-12T18:27:44.311Z,28.50
2022-08-12T18:30:21.015Z,28.50
2022-08-12T18:33:03.869Z,28.30
2022-08-12T18:35:47.170Z,28.30
2022-08-12T18:38:25.009Z,28.30
2022-08-12T18:41:21.869Z,28.10
2022-08-12T18:44:02.718Z,28.00
2022-08-12T18:46:55.281Z,28.00
2022-08-12T18:49:33.508Z,28.00
2022-08-12T18:52:08.038Z,27.90
2022-08-12T18:54:54.006Z,27.90
2022-08-12T18:58:05.919Z,27.70
2022-08-12T19:00:20.965Z,27.60
2022-08-12T19:02:54.871Z,27.50
2022-08-12T19:05:24.822Z,27.40
2022-08-12T19:08:12.138Z,27.30
2022-08-12T19:10:43.097Z,27.20
2022-08-12T19:13:36.319Z,27.10
2022-08-12T19:16:10.685Z,27.20
2022-08-12T19:18:40.882Z,27.10
2022-08-12T19:21:16.635Z,27.10
2022-08-12T19:24:06.740Z,27.00
2022-08-12T19:26:35.535Z,26.90
2022-08-12T19:29:04.954Z,26.90
2022-08-12T19:31:57.633Z,26.90
2022-08-12T19:37:38.697Z,26.70
2022-08-12T19:40:32.877Z,26.60
2022-08-12T19:43:21.766Z,26.50
2022-08-12T19:45:57.212Z,26.50
2022-08-12T19:48:30.797Z,26.40
2022-08-12T19:51:09.104Z,26.40
2022-08-12T19:53:58.025Z,26.30
2022-08-12T19:56:32.318Z,26.20
2022-08-12T19:59:20.521Z,26.20
2022-08-12T20:02:02.515Z,26.20
2022-08-12T20:04:37.326Z,26.10
2022-08-12T20:07:06.161Z,26.10
2022-08-12T20:09:39.817Z,26.10
2022-08-12T20:12:18.053Z,26.00
2022-08-12T20:14:53.461Z,25.90
2022-08-12T20:17:23.609Z,25.90
2022-08-12T20:20:17.471Z,25.90
2022-08-12T20:22:41.983Z,25.90
2022-08-12T20:25:15.443Z,25.90
2022-08-12T20:28:04.711Z,25.80
2022-08-12T20:30:52.569Z,25.80
2022-08-12T20:33:50.409Z,25.70
2022-08-12T20:36:41.277Z,25.70
2022-08-12T20:39:34.324Z,25.60
2022-08-12T20:42:04.479Z,25.60
2022-08-12T20:44:37.771Z,25.70
2022-08-12T20:47:16.709Z,25.60
2022-08-12T20:49:46.557Z,25.60
2022-08-12T20:52:25.413Z,25.60
2022-08-12T20:54:57.134Z,25.70
2022-08-12T20:57:38.041Z,25.60
2022-08-12T21:00:14.184Z,25.60
2022-08-12T21:02:45.687Z,25.60
2022-08-12T21:06:12.209Z,25.50
2022-08-12T21:08:26.281Z,25.40
2022-08-12T21:10:54.507Z,25.50
2022-08-12T21:13:26.905Z,25.50
2022-08-12T21:16:00.067Z,25.40
2022-08-12T21:18:28.633Z,25.40
2022-08-12T21:20:59.022Z,25.40
2022-08-12T21:23:30.960Z,25.40
2022-08-12T21:26:06.167Z,25.40
2022-08-12T21:28:44.231Z,25.40
2022-08-12T21:32:37.336Z,25.40
2022-08-12T21:34:14.638Z,25.30
2022-08-12T21:36:48.596Z,25.30
2022-08-12T21:39:26.773Z,25.20
2022-08-12T21:42:06.991Z,25.30
2022-08-12T21:45:46.608Z,25.20
2022-08-12T21:47:23.473Z,25.10
2022-08-12T21:50:04.350Z,25.10
2022-08-12T21:52:40.827Z,25.00
2022-08-12T21:55:18.836Z,25.00
2022-08-12T21:57:50.705Z,25.00
2022-08-12T22:00:23.855Z,24.90
2022-08-12T22:03:17.962Z,24.90
2022-08-12T22:06:30.800Z,24.80
2022-08-12T22:09:08.947Z,24.90
2022-08-12T22:11:57.044Z,24.90
2022-08-12T22:14:28.046Z,24.80
2022-08-12T22:17:00.772Z,24.80
2022-08-12T22:19:33.701Z,24.70
2022-08-12T22:22:04.743Z,24.70
2022-08-12T22:24:32.509Z,24.70
2022-08-12T22:27:07.988Z,24.60
2022-08-12T22:30:16.805Z,24.60
2022-08-12T22:32:50.012Z,24.60
2022-08-12T22:35:55.481Z,24.50
2022-08-12T22:38:23.823Z,24.40
2022-08-12T22:41:00.561Z,24.40
2022-08-12T22:44:00.217Z,24.40
2022-08-12T22:46:32.628Z,24.40
2022-08-12T22:48:59.401Z,24.30
2022-08-12T22:51:26.767Z,24.20
2022-08-12T22:53:55.768Z,24.20
2022-08-12T22:56:31.016Z,24.30
2022-08-12T22:59:03.071Z,24.20
2022-08-12T23:02:01.003Z,24.20
2022-08-12T23:04:28.669Z,24.20
2022-08-12T23:07:05.512Z,24.20
2022-08-12T23:09:48.095Z,24.10
2022-08-12T23:12:37.413Z,24.20
2022-08-12T23:15:13.124Z,24.10
2022-08-12T23:17:43.358Z,24.10
2022-08-12T23:20:13.032Z,24.10
2022-08-12T23:22:43.818Z,24.10
2022-08-12T23:25:55.648Z,24.00
2022-08-12T23:28:37.928Z,24.10
2022-08-12T23:31:09.068Z,24.10
2022-08-12T23:34:01.595Z,24.10
2022-08-12T23:36:31.664Z,24.00
2022-08-12T23:40:13.570Z,24.00
2022-08-12T23:42:18.072Z,23.80
2022-08-12T23:44:48.541Z,23.70
2022-08-12T23:47:22.823Z,23.50
2022-08-12T23:49:57.487Z,23.60
2022-08-12T23:52:34.050Z,23.60
2022-08-12T23:55:24.223Z,23.60
2022-08-12T23:58:21.018Z,23.50
